KILM

Wilmington International Airport

Wilmington, North Carolina, USA
METAR KILM 150253Z AUTO 27005KT 10SM CLR 26/23 A3003 RMK AO2 SLP168 LAST T02610228 53013
Observed Flight Rules
Aug-15 @ 02:53 UTC (43 minutes ago) Visual Flight Rules
Wind Visibility Clouds
270° at 5 knots 10 miles
  • Clear skies
Temperatures Readings
Current 26°C / 79°F
Dewpoint 23°C / 73°F
Humidity 84%
Altimeter 30.03" Hg
Pressure 1016.8 hPa
Elevation 9
METAR KILM 150253Z AUTO 27005KT 10SM CLR 26/23 A3003 RMK AO2 SLP168 LAST T02610228 53013
Observed Flight Rules
Aug-15 @ 02:53 UTC
(43 minutes ago)
VFR
Wind Visibility
270° at 5 knots 10 miles
Clouds
  • Clear skies
Temperature Dewpoint
26°C / 79°F 23°C / 73°F
Humidity Altimeter Pressure
84% 30.03" Hg 1016.8 hPa